createdAt,value
2022-12-14T00:00:30.981Z,99854.47
2022-12-14T00:01:29.888Z,99844.22
2022-12-14T00:02:10.015Z,99853.78
2022-12-14T00:02:49.961Z,99854.81
2022-12-14T00:03:31.003Z,99861.16
2022-12-14T00:04:11.919Z,99853.22
2022-12-14T00:04:58.969Z,99841.03
2022-12-14T00:05:52.910Z,99856.97
2022-12-14T00:06:47.956Z,99836.09
2022-12-14T00:07:42.883Z,99844.94
2022-12-14T00:08:41.568Z,99839.88
2022-12-14T00:09:35.867Z,99842.66
2022-12-14T00:10:22.906Z,99843.69
2022-12-14T00:10:57.057Z,99839.25
2022-12-14T00:11:43.903Z,99839.59
2022-12-14T00:12:17.975Z,99842.44
2022-12-14T00:13:05.928Z,99849.31
2022-12-14T00:13:39.972Z,99844.03
2022-12-14T00:14:26.876Z,99839.78
2022-12-14T00:15:00.997Z,99845.00
2022-12-14T00:15:48.911Z,99832.28
2022-12-14T00:16:24.928Z,99820.00
2022-12-14T00:17:12.361Z,99848.69
2022-12-14T00:17:49.086Z,99809.97
2022-12-14T00:18:38.573Z,99844.47
2022-12-14T00:19:12.986Z,99843.69
2022-12-14T00:19:59.883Z,99837.47
2022-12-14T00:20:34.097Z,99834.84
2022-12-14T00:21:18.892Z,99840.91
2022-12-14T00:21:58.963Z,99836.50
2022-12-14T00:22:39.902Z,99840.03
2022-12-14T00:23:19.909Z,99829.84
2022-12-14T00:24:02.114Z,99818.66
2022-12-14T00:24:46.208Z,99835.75
2022-12-14T00:25:26.886Z,99839.19
2022-12-14T00:26:18.006Z,99824.03
2022-12-14T00:26:58.887Z,99820.59
2022-12-14T00:27:39.033Z,99834.59
2022-12-14T00:28:19.852Z,99832.75
2022-12-14T00:29:02.101Z,99830.94
2022-12-14T00:29:42.859Z,99827.53
2022-12-14T00:30:25.924Z,99824.81
2022-12-14T00:31:05.968Z,99814.31
2022-12-14T00:31:49.368Z,99828.13
2022-12-14T00:32:31.554Z,99813.56
2022-12-14T00:33:11.958Z,99832.44
2022-12-14T00:33:53.888Z,99829.84
2022-12-14T00:34:34.933Z,99828.22
2022-12-14T00:35:20.874Z,99835.06
2022-12-14T00:36:00.925Z,99828.06
2022-12-14T00:36:42.855Z,99820.00
2022-12-14T00:37:23.972Z,99827.38
2022-12-14T00:38:04.874Z,99819.44
2022-12-14T00:38:46.034Z,99823.00
2022-12-14T00:39:26.836Z,99822.09
2022-12-14T00:40:06.937Z,99824.66
2022-12-14T00:40:47.837Z,99822.16
2022-12-14T00:41:27.977Z,99827.38
2022-12-14T00:42:08.813Z,99817.03
2022-12-14T00:42:48.897Z,99822.16
2022-12-14T00:43:29.873Z,99814.59
2022-12-14T00:44:09.879Z,99824.81
2022-12-14T00:44:49.827Z,99820.59
2022-12-14T00:45:29.878Z,99818.84
2022-12-14T00:46:09.864Z,99816.16
2022-12-14T00:46:51.063Z,99812.69
2022-12-14T00:47:36.135Z,99818.91
2022-12-14T00:48:19.886Z,99818.84
2022-12-14T00:49:00.831Z,99817.03
2022-12-14T00:49:40.904Z,99812.81
2022-12-14T00:50:21.850Z,99817.13
2022-12-14T00:51:02.958Z,99812.19
2022-12-14T00:51:43.842Z,99815.56
2022-12-14T00:52:23.903Z,99804.31
2022-12-14T00:53:03.822Z,99806.00
2022-12-14T00:53:43.874Z,99795.81
2022-12-14T00:54:24.829Z,99816.56
2022-12-14T00:55:04.944Z,99799.16
2022-12-14T00:55:49.401Z,99813.91
2022-12-14T00:56:29.874Z,99822.53
2022-12-14T00:57:09.820Z,99812.28
2022-12-14T00:57:51.036Z,99816.50
2022-12-14T00:58:31.922Z,99806.16
2022-12-14T00:59:12.139Z,99820.13
2022-12-14T00:59:51.844Z,99791.81
2022-12-14T01:00:31.855Z,99812.28
2022-12-14T01:01:16.915Z,99806.28
2022-12-14T01:01:56.951Z,99815.63
2022-12-14T01:02:36.867Z,99812.19
2022-12-14T01:03:17.929Z,99815.75
2022-12-14T01:04:18.917Z,99804.50
2022-12-14T01:05:05.840Z,99806.28
2022-12-14T01:05:59.823Z,99811.44
2022-12-14T01:06:53.803Z,99810.47
2022-12-14T01:07:48.922Z,99805.28
2022-12-14T01:08:42.803Z,99800.09
2022-12-14T01:09:38.809Z,99813.16
2022-12-14T01:10:25.851Z,99799.09
2022-12-14T01:11:01.141Z,99804.38
2022-12-14T01:11:48.791Z,99801.63
2022-12-14T01:12:23.142Z,99794.63
2022-12-14T01:13:10.795Z,99797.13
2022-12-14T01:13:49.486Z,99790.25
2022-12-14T01:14:37.801Z,99799.22
2022-12-14T01:15:13.246Z,99795.81
2022-12-14T01:15:53.930Z,99794.72
2022-12-14T01:16:34.053Z,99799.22
2022-12-14T01:17:14.816Z,99793.94
2022-12-14T01:17:54.827Z,99791.38
2022-12-14T01:18:34.798Z,99799.16
2022-12-14T01:19:14.851Z,99804.81
2022-12-14T01:19:55.786Z,99795.16
2022-12-14T01:20:35.839Z,99776.97
2022-12-14T01:21:34.790Z,99803.03
2022-12-14T01:22:14.831Z,99798.38
2022-12-14T01:22:59.792Z,99789.66
2022-12-14T01:23:39.859Z,99789.53
2022-12-14T01:24:20.826Z,99793.81
2022-12-14T01:25:00.817Z,99763.59
2022-12-14T01:25:48.848Z,99793.69
2022-12-14T01:26:24.851Z,99786.56
2022-12-14T01:27:04.803Z,99767.69
2022-12-14T01:27:44.829Z,99799.63
2022-12-14T01:28:24.761Z,99784.94
2022-12-14T01:29:05.898Z,99794.41
2022-12-14T01:29:45.772Z,99784.84
2022-12-14T01:30:25.822Z,99789.13
2022-12-14T01:31:05.848Z,99799.31
2022-12-14T01:31:48.584Z,99795.75
2022-12-14T01:32:29.825Z,99792.16
2022-12-14T01:33:09.831Z,99781.94
2022-12-14T01:33:51.755Z,99787.13
2022-12-14T01:34:45.767Z,99778.56
2022-12-14T01:35:39.772Z,99792.31
2022-12-14T01:36:42.771Z,99797.72
2022-12-14T01:37:36.835Z,99780.38
2022-12-14T01:38:30.786Z,99798.41
2022-12-14T01:39:27.764Z,99783.63
2022-12-14T01:40:22.760Z,99795.66
2022-12-14T01:41:17.794Z,99782.75
2022-12-14T01:42:11.790Z,99799.50
2022-12-14T01:42:58.796Z,99794.19
2022-12-14T01:43:33.812Z,99776.88
2022-12-14T01:44:23.764Z,99800.47
2022-12-14T01:45:04.859Z,99786.63
2022-12-14T01:45:51.812Z,99796.13
2022-12-14T01:46:50.897Z,99795.25
2022-12-14T01:47:47.745Z,99798.06
2022-12-14T01:48:28.781Z,99787.50
2022-12-14T01:49:34.799Z,99791.31
2022-12-14T01:50:48.755Z,99793.81
2022-12-14T01:51:43.768Z,99798.06
2022-12-14T01:52:59.744Z,99799.91
2022-12-14T01:53:47.782Z,99794.78
2022-12-14T01:54:22.763Z,99804.59
2022-12-14T01:55:17.760Z,99795.00
2022-12-14T01:55:56.816Z,99769.94
2022-12-14T01:56:46.812Z,99803.88
2022-12-14T01:57:21.844Z,99789.06
2022-12-14T01:58:21.743Z,99777.00
2022-12-14T01:59:02.776Z,99798.75
2022-12-14T02:00:02.323Z,99798.94
2022-12-14T02:01:01.739Z,99796.47
2022-12-14T02:01:55.860Z,99793.97
2022-12-14T02:02:54.822Z,99800.34
2022-12-14T02:03:52.748Z,99803.91
2022-12-14T02:04:33.759Z,99801.25
2022-12-14T02:05:14.814Z,99803.13
2022-12-14T02:06:20.739Z,99802.59
2022-12-14T02:07:01.778Z,99789.44
2022-12-14T02:07:42.725Z,99800.84
2022-12-14T02:08:30.811Z,99803.50
2022-12-14T02:09:15.746Z,99788.03
2022-12-14T02:09:55.743Z,99807.97
2022-12-14T02:10:31.787Z,99794.13
2022-12-14T02:11:18.732Z,99790.78
2022-12-14T02:12:19.776Z,99790.22
2022-12-14T02:13:30.050Z,99807.63
2022-12-14T02:14:04.187Z,99810.09
2022-12-14T02:14:51.758Z,99804.94
2022-12-14T02:15:32.741Z,99806.69
2022-12-14T02:16:26.793Z,99791.06
2022-12-14T02:17:21.720Z,99787.56
2022-12-14T02:18:17.705Z,99781.56
2022-12-14T02:19:11.709Z,99805.69
2022-12-14T02:20:05.699Z,99795.19
2022-12-14T02:21:22.761Z,99796.84
2022-12-14T02:22:14.777Z,99783.34
2022-12-14T02:23:44.732Z,99776.50
2022-12-14T02:24:29.764Z,99804.19
2022-12-14T02:25:25.720Z,99792.00
2022-12-14T02:27:00.730Z,99793.84
2022-12-14T02:28:40.729Z,99807.75
2022-12-14T02:30:04.704Z,99791.00
2022-12-14T02:31:20.733Z,99795.34
2022-12-14T02:32:44.717Z,99786.63
2022-12-14T02:34:20.711Z,99794.41
2022-12-14T02:35:32.737Z,99783.44
2022-12-14T02:36:44.709Z,99785.50
2022-12-14T02:38:13.773Z,99781.41
2022-12-14T02:39:41.676Z,99746.34
2022-12-14T02:41:19.788Z,99784.25
2022-12-14T02:42:26.683Z,99768.66
2022-12-14T02:43:35.746Z,99777.13
2022-12-14T02:45:09.683Z,99780.56
2022-12-14T02:46:28.769Z,99781.34
2022-12-14T02:47:50.696Z,99772.06
2022-12-14T02:48:53.725Z,99768.63
2022-12-14T02:50:44.684Z,99738.69
2022-12-14T02:51:59.668Z,99779.19
2022-12-14T02:53:28.038Z,99774.69
2022-12-14T02:54:36.691Z,99746.16
2022-12-14T02:55:21.727Z,99778.06
2022-12-14T02:56:16.684Z,99778.91
2022-12-14T02:57:02.777Z,99777.94
2022-12-14T02:58:18.694Z,99771.81
2022-12-14T02:58:54.813Z,99774.56
2022-12-14T02:59:42.688Z,99775.31
2022-12-14T03:00:17.733Z,99760.53
2022-12-14T03:01:05.739Z,99771.72
2022-12-14T03:01:41.948Z,99780.44
2022-12-14T03:02:55.730Z,99772.78
2022-12-14T03:03:29.972Z,99755.59
2022-12-14T03:04:17.661Z,99747.03
2022-12-14T03:05:04.684Z,99771.47
2022-12-14T03:06:34.685Z,99769.34
2022-12-14T03:07:52.655Z,99767.91
2022-12-14T03:08:47.667Z,99744.78
2022-12-14T03:09:43.647Z,99775.09
2022-12-14T03:10:55.673Z,99777.53
2022-12-14T03:11:56.106Z,99764.59
2022-12-14T03:12:35.643Z,99766.38
2022-12-14T03:13:29.181Z,99769.03
2022-12-14T03:14:23.657Z,99751.66
2022-12-14T03:15:04.727Z,99762.25
2022-12-14T03:15:48.662Z,99755.38
2022-12-14T03:16:43.696Z,99757.09
2022-12-14T03:17:23.776Z,99767.63
2022-12-14T03:18:13.634Z,99762.44
2022-12-14T03:19:38.720Z,99765.13
2022-12-14T03:20:30.659Z,99754.94
2022-12-14T03:21:05.760Z,99765.31
2022-12-14T03:22:18.664Z,99757.59
2022-12-14T03:23:14.677Z,99751.78
2022-12-14T03:24:02.637Z,99743.03
2022-12-14T03:24:45.688Z,99763.84
2022-12-14T03:26:04.651Z,99749.22
2022-12-14T03:26:47.581Z,99749.94
2022-12-14T03:27:39.720Z,99750.81
2022-12-14T03:28:32.744Z,99749.94
2022-12-14T03:29:27.661Z,99746.28
2022-12-14T03:30:07.616Z,99754.09
2022-12-14T03:31:10.643Z,99746.28
2022-12-14T03:31:56.687Z,99750.88
2022-12-14T03:32:48.665Z,99752.81
2022-12-14T03:33:27.507Z,99751.03
2022-12-14T03:34:19.643Z,99744.94
2022-12-14T03:35:01.761Z,99726.13
2022-12-14T03:36:07.614Z,99747.56
2022-12-14T03:36:56.681Z,99741.50
2022-12-14T03:37:59.638Z,99744.13
2022-12-14T03:38:45.724Z,99749.41
2022-12-14T03:39:37.627Z,99751.16
2022-12-14T03:40:14.713Z,99753.06
2022-12-14T03:41:27.649Z,99720.34
2022-12-14T03:42:40.657Z,99753.84
2022-12-14T03:43:49.681Z,99748.09
2022-12-14T03:45:04.769Z,99737.69
2022-12-14T03:46:58.636Z,99743.84
2022-12-14T03:48:21.650Z,99757.66
2022-12-14T03:49:14.699Z,99744.44
2022-12-14T03:50:17.613Z,99739.28
2022-12-14T03:51:27.601Z,99737.84
2022-12-14T03:52:39.612Z,99753.50
2022-12-14T03:53:54.600Z,99756.00
2022-12-14T03:54:50.640Z,99762.97
2022-12-14T03:55:44.897Z,99750.88
2022-12-14T03:57:04.599Z,99756.91
2022-12-14T03:58:13.645Z,99763.09
2022-12-14T03:59:16.603Z,99742.09
2022-12-14T04:00:21.649Z,99746.50
2022-12-14T04:01:28.710Z,99743.94
2022-12-14T04:02:39.185Z,99753.38
2022-12-14T04:04:00.597Z,99749.03
2022-12-14T04:05:10.608Z,99755.19
2022-12-14T04:05:57.611Z,99749.38
2022-12-14T04:07:00.680Z,99731.91
2022-12-14T04:07:51.631Z,99741.47
2022-12-14T04:08:41.785Z,99737.06
2022-12-14T04:09:58.600Z,99747.53
2022-12-14T04:11:12.621Z,99749.44
2022-12-14T04:12:45.302Z,99754.56
2022-12-14T04:14:09.596Z,99753.53
2022-12-14T04:15:28.585Z,99751.94
2022-12-14T04:16:46.643Z,99752.81
2022-12-14T04:18:04.567Z,99745.88
2022-12-14T04:19:08.583Z,99751.03
2022-12-14T04:20:13.595Z,99751.78
2022-12-14T04:21:13.586Z,99746.00
2022-12-14T04:22:12.585Z,99750.56
2022-12-14T04:22:55.603Z,99734.84
2022-12-14T04:24:08.564Z,99745.94
2022-12-14T04:25:14.222Z,99741.47
2022-12-14T04:26:13.592Z,99741.34
2022-12-14T04:26:55.635Z,99726.78
2022-12-14T04:27:59.595Z,99747.38
2022-12-14T04:29:10.879Z,99750.84
2022-12-14T04:30:02.553Z,99740.31
2022-12-14T04:30:45.595Z,99739.53
2022-12-14T04:31:28.694Z,99738.63
2022-12-14T04:32:24.671Z,99721.22
2022-12-14T04:33:42.571Z,99731.75
2022-12-14T04:34:38.565Z,99703.28
2022-12-14T04:35:53.555Z,99731.75
2022-12-14T04:36:54.544Z,99714.53
2022-12-14T04:37:51.581Z,99730.88
2022-12-14T04:38:50.575Z,99729.97
2022-12-14T04:39:53.565Z,99728.25
2022-12-14T04:40:53.558Z,99728.16
2022-12-14T04:41:56.548Z,99722.81
2022-12-14T04:43:01.560Z,99722.09
2022-12-14T04:43:58.595Z,99714.31
2022-12-14T04:45:02.566Z,99717.53
2022-12-14T04:46:19.573Z,99717.56
2022-12-14T04:47:15.564Z,99724.59
2022-12-14T04:48:36.530Z,99716.03
2022-12-14T04:49:30.552Z,99731.69
2022-12-14T04:50:18.813Z,99711.00
2022-12-14T04:51:13.532Z,99730.03
2022-12-14T04:52:12.723Z,99718.78
2022-12-14T04:53:06.545Z,99722.41
2022-12-14T04:53:42.598Z,99715.59
2022-12-14T04:54:51.546Z,99723.47
2022-12-14T04:56:02.568Z,99720.84
2022-12-14T04:57:17.380Z,99717.31
2022-12-14T04:58:07.611Z,99712.03
2022-12-14T04:58:54.523Z,99718.16
2022-12-14T04:59:28.556Z,99706.88
2022-12-14T05:00:16.580Z,99706.16
2022-12-14T05:01:29.717Z,99712.19
2022-12-14T05:02:42.605Z,99708.72
2022-12-14T05:03:32.553Z,99706.03
2022-12-14T05:04:33.544Z,99711.19
2022-12-14T05:05:14.579Z,99709.41
2022-12-14T05:06:19.544Z,99701.78
2022-12-14T05:07:22.608Z,99698.13
2022-12-14T05:08:59.517Z,99699.00
2022-12-14T05:10:07.139Z,99691.16
2022-12-14T05:12:47.553Z,99702.94
2022-12-14T05:13:49.532Z,99688.31
2022-12-14T05:14:39.690Z,99704.03
2022-12-14T05:15:28.491Z,99708.41
2022-12-14T05:16:09.680Z,99705.09
2022-12-14T05:16:50.578Z,99695.78
2022-12-14T05:17:30.631Z,99700.88
2022-12-14T05:18:13.528Z,99693.03
2022-12-14T05:18:53.646Z,99703.66
2022-12-14T05:19:33.507Z,99680.28
2022-12-14T05:20:25.633Z,99703.50
2022-12-14T05:21:06.498Z,99693.00
2022-12-14T05:21:49.234Z,99702.59
2022-12-14T05:22:29.512Z,99689.50
2022-12-14T05:23:09.528Z,99704.34
2022-12-14T05:23:49.507Z,99695.56
2022-12-14T05:24:29.544Z,99694.66
2022-12-14T05:25:09.500Z,99692.81
2022-12-14T05:25:49.544Z,99679.84
2022-12-14T05:26:29.488Z,99677.38
2022-12-14T05:27:09.526Z,99699.16
2022-12-14T05:27:49.505Z,99686.19
2022-12-14T05:28:29.529Z,99693.31
2022-12-14T05:29:10.485Z,99693.25
2022-12-14T05:29:50.545Z,99693.31
2022-12-14T05:30:31.525Z,99689.06
2022-12-14T05:31:11.590Z,99694.28
2022-12-14T05:31:52.496Z,99696.97
2022-12-14T05:32:35.521Z,99688.31
2022-12-14T05:33:27.008Z,99693.75
2022-12-14T05:34:07.616Z,99691.22
2022-12-14T05:34:48.476Z,99687.84
2022-12-14T05:35:28.532Z,99674.81
2022-12-14T05:36:08.484Z,99690.44
2022-12-14T05:36:48.548Z,99691.22
2022-12-14T05:37:28.479Z,99692.00
2022-12-14T05:38:10.025Z,99689.66
2022-12-14T05:38:50.492Z,99691.97
2022-12-14T05:39:30.556Z,99679.75
2022-12-14T05:40:11.478Z,99686.66
2022-12-14T05:40:52.028Z,99679.81
2022-12-14T05:41:32.503Z,99680.50
2022-12-14T05:42:12.507Z,99687.63
2022-12-14T05:42:55.834Z,99674.50
2022-12-14T05:43:30.414Z,99686.56
2022-12-14T05:44:11.546Z,99681.31
2022-12-14T05:44:45.510Z,99681.19
2022-12-14T05:45:19.146Z,99684.69
2022-12-14T05:46:10.494Z,99684.63
2022-12-14T05:46:44.539Z,99665.66
2022-12-14T05:47:18.990Z,99673.47
2022-12-14T05:47:59.460Z,99678.78
2022-12-14T05:48:33.502Z,99670.16
2022-12-14T05:49:21.493Z,99686.72
2022-12-14T05:49:55.780Z,99685.75
2022-12-14T05:50:42.473Z,99683.22
2022-12-14T05:51:18.579Z,99672.03
2022-12-14T05:52:05.469Z,99668.66
2022-12-14T05:52:39.547Z,99675.56
2022-12-14T05:53:26.841Z,99676.47
2022-12-14T05:54:00.530Z,99658.50
2022-12-14T05:54:40.463Z,99663.50
2022-12-14T05:55:20.503Z,99661.56
2022-12-14T05:56:01.461Z,99660.16
2022-12-14T05:56:41.527Z,99674.47
2022-12-14T05:57:22.468Z,99674.44
2022-12-14T05:58:03.497Z,99677.72
2022-12-14T05:58:44.469Z,99669.03
2022-12-14T05:59:24.505Z,99674.19
2022-12-14T06:00:04.487Z,99676.00
2022-12-14T06:00:44.485Z,99672.94
2022-12-14T06:01:24.500Z,99674.56
2022-12-14T06:02:06.663Z,99673.59
2022-12-14T06:02:47.519Z,99668.31
2022-12-14T06:03:27.928Z,99665.69
2022-12-14T06:04:08.522Z,99677.81
2022-12-14T06:04:48.516Z,99669.88
2022-12-14T06:05:28.456Z,99676.91
2022-12-14T06:06:11.039Z,99682.91
2022-12-14T06:06:52.445Z,99667.31
2022-12-14T06:07:32.511Z,99658.63
2022-12-14T06:08:12.448Z,99673.25
2022-12-14T06:08:53.520Z,99672.56
2022-12-14T06:09:33.446Z,99681.09
2022-12-14T06:10:14.496Z,99674.91
2022-12-14T06:10:54.479Z,99665.41
2022-12-14T06:11:34.485Z,99674.81
2022-12-14T06:12:14.441Z,99673.03
2022-12-14T06:12:54.475Z,99670.41
2022-12-14T06:13:34.420Z,99663.50
2022-12-14T06:14:16.470Z,99665.94
2022-12-14T06:14:56.435Z,99645.28
2022-12-14T06:15:36.602Z,99669.56
2022-12-14T06:16:25.553Z,99679.22
2022-12-14T06:17:05.506Z,99673.03
2022-12-14T06:17:52.469Z,99671.28
2022-12-14T06:18:32.465Z,99672.13
2022-12-14T06:19:12.442Z,99670.75
2022-12-14T06:19:52.467Z,99667.22
2022-12-14T06:20:35.459Z,99667.16
2022-12-14T06:21:15.464Z,99666.28
2022-12-14T06:21:55.462Z,99667.91
2022-12-14T06:22:35.533Z,99658.56
2022-12-14T06:23:15.436Z,99660.28
2022-12-14T06:23:56.482Z,99663.75
2022-12-14T06:24:36.468Z,99661.94
2022-12-14T06:25:17.465Z,99658.50
2022-12-14T06:26:07.031Z,99647.16
2022-12-14T06:26:48.481Z,99659.28
2022-12-14T06:27:28.428Z,99659.44
2022-12-14T06:28:08.449Z,99660.28
2022-12-14T06:28:49.427Z,99644.69
2022-12-14T06:29:29.536Z,99654.97
2022-12-14T06:30:10.441Z,99636.81
2022-12-14T06:30:53.499Z,99642.06
2022-12-14T06:31:36.422Z,99655.13
2022-12-14T06:32:16.629Z,99655.88
2022-12-14T06:32:56.423Z,99656.84
2022-12-14T06:33:38.469Z,99655.19
2022-12-14T06:34:23.410Z,99661.13
2022-12-14T06:35:05.458Z,99669.94
2022-12-14T06:35:53.442Z,99648.22
2022-12-14T06:36:37.548Z,99651.69
2022-12-14T06:37:18.422Z,99661.94
2022-12-14T06:38:05.430Z,99666.28
2022-12-14T06:38:59.403Z,99631.81
2022-12-14T06:39:54.624Z,99655.38
2022-12-14T06:40:48.471Z,99646.72
2022-12-14T06:41:42.464Z,99655.38
2022-12-14T06:42:36.400Z,99657.34
2022-12-14T06:43:23.425Z,99646.03
2022-12-14T06:44:05.504Z,99654.59
2022-12-14T06:44:45.393Z,99651.88
2022-12-14T06:45:25.479Z,99653.66
2022-12-14T06:46:09.859Z,99658.75
2022-12-14T06:46:53.487Z,99645.75
2022-12-14T06:47:34.395Z,99662.13
2022-12-14T06:48:15.448Z,99644.78
2022-12-14T06:48:57.460Z,99658.63
2022-12-14T06:49:37.456Z,99650.69
2022-12-14T06:50:17.424Z,99642.06
2022-12-14T06:50:57.476Z,99654.97
2022-12-14T06:51:37.393Z,99648.00
2022-12-14T06:52:20.823Z,99647.91
2022-12-14T06:53:05.392Z,99644.53
2022-12-14T06:53:46.292Z,99658.34
2022-12-14T06:54:26.433Z,99644.41
2022-12-14T06:55:06.642Z,99644.59
2022-12-14T06:55:46.392Z,99643.56
2022-12-14T06:56:32.472Z,99651.38
2022-12-14T06:57:14.393Z,99648.84
2022-12-14T06:57:57.451Z,99637.66
2022-12-14T06:58:37.380Z,99645.44
2022-12-14T06:59:18.538Z,99648.97
2022-12-14T06:59:58.398Z,99642.00
2022-12-14T07:00:38.448Z,99648.91
2022-12-14T07:01:22.454Z,99652.41
2022-12-14T07:02:03.508Z,99647.94
2022-12-14T07:02:44.514Z,99649.66
2022-12-14T07:03:24.567Z,99628.16
2022-12-14T07:04:06.396Z,99649.78
2022-12-14T07:04:48.455Z,99655.78
2022-12-14T07:05:28.393Z,99653.16
2022-12-14T07:06:10.451Z,99648.75
2022-12-14T07:06:51.363Z,99646.13
2022-12-14T07:07:31.432Z,99636.69
2022-12-14T07:08:11.400Z,99646.13
2022-12-14T07:08:52.410Z,99652.34
2022-12-14T07:09:32.370Z,99654.03
2022-12-14T07:10:14.489Z,99647.94
2022-12-14T07:10:58.924Z,99634.03
2022-12-14T07:11:43.424Z,99634.03
2022-12-14T07:12:23.356Z,99644.41
2022-12-14T07:13:03.396Z,99634.03
2022-12-14T07:13:43.357Z,99640.75
2022-12-14T07:14:24.470Z,99645.09
2022-12-14T07:15:05.379Z,99629.38
2022-12-14T07:15:46.490Z,99639.78
2022-12-14T07:16:30.389Z,99633.88
2022-12-14T07:17:10.411Z,99636.47
2022-12-14T07:17:50.351Z,99632.06
2022-12-14T07:18:31.413Z,99631.38
2022-12-14T07:19:11.347Z,99631.38
2022-12-14T07:19:51.386Z,99620.16
2022-12-14T07:20:31.392Z,99626.88
2022-12-14T07:21:15.443Z,99621.72
2022-12-14T07:21:55.400Z,99629.50
2022-12-14T07:22:35.631Z,99625.00
2022-12-14T07:23:15.354Z,99634.56
2022-12-14T07:23:56.542Z,99633.63
2022-12-14T07:24:37.353Z,99632.69
2022-12-14T07:25:18.499Z,99633.72
2022-12-14T07:25:59.363Z,99616.34
2022-12-14T07:26:39.416Z,99624.91
2022-12-14T07:27:19.412Z,99623.91
2022-12-14T07:27:59.418Z,99618.63
2022-12-14T07:28:40.372Z,99615.00
2022-12-14T07:29:20.473Z,99615.88
2022-12-14T07:30:02.381Z,99592.59
2022-12-14T07:30:42.415Z,99602.00
2022-12-14T07:31:32.404Z,99620.22
2022-12-14T07:32:12.741Z,99622.19
2022-12-14T07:32:53.356Z,99594.31
2022-12-14T07:33:34.720Z,99599.50
2022-12-14T07:34:19.371Z,99615.72
2022-12-14T07:35:00.483Z,99614.97
2022-12-14T07:35:40.336Z,99623.50
2022-12-14T07:36:24.483Z,99628.19
2022-12-14T07:37:04.352Z,99616.13
2022-12-14T07:37:49.267Z,99611.69
2022-12-14T07:38:30.340Z,99622.19
2022-12-14T07:39:11.377Z,99612.59
2022-12-14T07:39:51.334Z,99609.06
2022-12-14T07:40:31.383Z,99618.53
2022-12-14T07:41:22.327Z,99617.59
2022-12-14T07:42:02.402Z,99619.31
2022-12-14T07:42:42.323Z,99603.56
2022-12-14T07:43:22.397Z,99618.34
2022-12-14T07:44:03.348Z,99617.47
2022-12-14T07:44:44.440Z,99613.09
2022-12-14T07:45:24.327Z,99607.16
2022-12-14T07:46:10.519Z,99607.94
2022-12-14T07:46:50.398Z,99616.03
2022-12-14T07:47:30.701Z,99621.38
2022-12-14T07:48:13.323Z,99618.59
2022-12-14T07:48:57.624Z,99616.91
2022-12-14T07:49:38.406Z,99620.47
2022-12-14T07:50:18.555Z,99619.50
2022-12-14T07:50:58.344Z,99608.97
2022-12-14T07:51:44.317Z,99605.50
2022-12-14T07:52:24.322Z,99616.91
2022-12-14T07:53:05.447Z,99617.72
2022-12-14T07:53:46.339Z,99602.19
2022-12-14T07:54:27.432Z,99584.94
2022-12-14T07:55:07.341Z,99610.78
2022-12-14T07:55:47.356Z,99617.09
2022-12-14T07:56:34.338Z,99612.13
2022-12-14T07:57:14.518Z,99611.94
2022-12-14T07:57:54.299Z,99605.84
2022-12-14T07:58:34.925Z,99605.94
2022-12-14T07:59:21.347Z,99611.91
2022-12-14T08:00:01.404Z,99615.34
2022-12-14T08:00:41.360Z,99613.75
2022-12-14T08:01:31.468Z,99617.94
2022-12-14T08:02:11.453Z,99610.19
2022-12-14T08:02:51.577Z,99609.97
2022-12-14T08:03:32.616Z,99610.75
2022-12-14T08:04:19.732Z,99584.84
2022-12-14T08:05:00.342Z,99617.03
2022-12-14T08:05:40.408Z,99593.38
2022-12-14T08:06:21.363Z,99609.91
2022-12-14T08:07:01.368Z,99608.88
2022-12-14T08:07:42.302Z,99608.03
2022-12-14T08:08:22.342Z,99612.25
2022-12-14T08:09:03.307Z,99596.47
2022-12-14T08:09:43.364Z,99604.34
2022-12-14T08:10:23.293Z,99594.84
2022-12-14T08:11:03.556Z,99598.19
2022-12-14T08:11:44.308Z,99596.22
2022-12-14T08:12:25.341Z,99602.22
2022-12-14T08:13:05.343Z,99596.91
2022-12-14T08:13:46.998Z,99600.34
2022-12-14T08:14:28.301Z,99597.50
2022-12-14T08:15:08.331Z,99581.19
2022-12-14T08:15:48.620Z,99587.34
2022-12-14T08:16:28.409Z,99586.34
2022-12-14T08:17:09.371Z,99590.78
2022-12-14T08:17:49.320Z,99584.63
2022-12-14T08:18:30.293Z,99587.00
2022-12-14T08:19:10.340Z,99597.22
2022-12-14T08:19:51.305Z,99590.53
2022-12-14T08:20:31.516Z,99590.41
2022-12-14T08:21:14.316Z,99595.50
2022-12-14T08:21:55.325Z,99592.81
2022-12-14T08:22:35.309Z,99583.25
2022-12-14T08:23:15.335Z,99601.56
2022-12-14T08:23:56.278Z,99597.09
2022-12-14T08:24:36.366Z,99598.72
2022-12-14T08:25:16.280Z,99587.72
2022-12-14T08:26:05.384Z,99593.59
2022-12-14T08:26:47.276Z,99588.25
2022-12-14T08:27:29.339Z,99587.09
2022-12-14T08:28:09.296Z,99587.34
2022-12-14T08:28:49.323Z,99569.97
2022-12-14T08:29:29.285Z,99577.00
2022-12-14T08:30:10.334Z,99571.09
2022-12-14T08:30:50.282Z,99578.59
2022-12-14T08:31:32.401Z,99592.31
2022-12-14T08:32:12.290Z,99573.16
2022-12-14T08:32:52.368Z,99576.50
2022-12-14T08:33:32.684Z,99569.47
2022-12-14T08:34:16.735Z,99583.09
2022-12-14T08:34:57.305Z,99580.31
2022-12-14T08:35:40.301Z,99574.22
2022-12-14T08:36:31.267Z,99562.84
2022-12-14T08:37:11.300Z,99578.41
2022-12-14T08:37:51.281Z,99578.34
2022-12-14T08:38:39.292Z,99574.66
2022-12-14T08:39:13.371Z,99583.50
2022-12-14T08:40:01.270Z,99579.06
2022-12-14T08:40:35.935Z,99572.84
2022-12-14T08:41:28.290Z,99574.56
2022-12-14T08:42:01.933Z,99576.19
2022-12-14T08:42:49.261Z,99564.13
2022-12-14T08:43:25.647Z,99574.47
2022-12-14T08:44:07.268Z,99574.34
2022-12-14T08:44:41.308Z,99562.22
2022-12-14T08:45:15.317Z,99583.69
2022-12-14T08:45:55.254Z,99562.09
2022-12-14T08:46:29.362Z,99577.50
2022-12-14T08:47:03.021Z,99577.41
2022-12-14T08:47:43.268Z,99576.44
2022-12-14T08:48:17.770Z,99583.41
2022-12-14T08:48:55.108Z,99579.91
2022-12-14T08:49:36.285Z,99579.03
2022-12-14T08:50:10.312Z,99563.44
2022-12-14T08:50:43.921Z,99581.50
2022-12-14T08:51:25.245Z,99565.81
2022-12-14T08:51:59.774Z,99570.03
2022-12-14T08:52:34.628Z,99574.38
2022-12-14T08:53:14.254Z,99580.34
2022-12-14T08:53:48.298Z,99575.09
2022-12-14T08:54:24.085Z,99576.06
2022-12-14T08:55:05.295Z,99562.13
2022-12-14T08:55:39.272Z,99579.44
2022-12-14T08:56:15.821Z,99576.72
2022-12-14T08:56:56.228Z,99586.13
2022-12-14T08:57:30.320Z,99566.16
2022-12-14T08:58:03.912Z,99564.03
2022-12-14T08:58:47.251Z,99572.72
2022-12-14T08:59:52.147Z,99542.28
2022-12-14T09:00:22.255Z,99558.84
2022-12-14T09:01:18.399Z,99570.88
2022-12-14T09:01:58.440Z,99567.38
2022-12-14T09:02:38.361Z,99569.19
2022-12-14T09:03:19.277Z,99549.53
2022-12-14T09:03:59.270Z,99575.47
2022-12-14T09:04:41.242Z,99569.59
2022-12-14T09:05:21.340Z,99566.25
2022-12-14T09:06:02.272Z,99570.72
2022-12-14T09:06:45.289Z,99574.31
2022-12-14T09:07:25.225Z,99571.38
2022-12-14T09:08:06.291Z,99571.22
2022-12-14T09:08:47.183Z,99545.19
2022-12-14T09:09:30.277Z,99569.31
2022-12-14T09:10:10.249Z,99566.59
2022-12-14T09:10:56.254Z,99565.63
2022-12-14T09:11:36.254Z,99573.59
2022-12-14T09:12:16.296Z,99553.50
2022-12-14T09:12:57.231Z,99560.25
2022-12-14T09:13:37.257Z,99562.78
2022-12-14T09:14:17.212Z,99560.34
2022-12-14T09:14:58.309Z,99552.44
2022-12-14T09:15:38.242Z,99554.00
2022-12-14T09:16:27.947Z,99556.28
2022-12-14T09:17:09.237Z,99559.81
2022-12-14T09:17:50.910Z,99555.94